Time;durP1;ratioP1;P1;durP2;ratioP2;P2;SDS_P1;SDS_P2;PMS_P1;PMS_P2;Temp;Humidity;BMP_temperature;BMP_pressure;BME280_temperature;BME280_humidity;BME280_pressure;Samples;Min_cycle;Max_cycle;Signal;HPM_P1;HPM_P2
2023/04/12 00:01:27;;;;;;;;;3.00;3.00;;;;;10.09;93.57;99895.50;5141183;27;45572;-65
2023/04/12 00:03:53;;;;;;;;;4.25;2.75;;;;;10.25;93.59;99930.03;5141059;27;45235;-65
2023/04/12 00:06:24;;;;;;;;;4.75;2.25;;;;;10.25;92.24;99915.13;5140864;27;45492;-65
2023/04/12 00:08:49;;;;;;;;;4.00;2.25;;;;;10.25;92.66;99928.28;5140616;27;45372;-65
2023/04/12 00:11:15;;;;;;;;;2.00;2.00;;;;;10.28;93.05;99906.25;5140798;27;45322;-65
2023/04/12 00:13:41;;;;;;;;;4.00;3.00;;;;;10.29;93.69;99908.81;5141086;27;45234;-66
2023/04/12 00:16:07;;;;;;;;;2.00;2.00;;;;;10.28;92.05;99898.34;5140522;27;47135;-65
2023/04/12 00:18:33;;;;;;;;;2.50;2.50;;;;;10.18;92.40;99883.81;5140660;27;45345;-65
2023/04/12 00:20:58;;;;;;;;;2.00;2.00;;;;;10.22;92.97;99875.78;5140942;27;45472;-66
2023/04/12 00:23:23;;;;;;;;;3.25;2.75;;;;;10.26;93.33;99877.38;5140812;27;45370;-65
2023/04/12 00:25:49;;;;;;;;;2.00;2.00;;;;;10.24;93.27;99862.56;5140064;27;47309;-65
2023/04/12 00:28:15;;;;;;;;;2.00;2.00;;;;;10.04;93.50;99831.72;5140341;27;45217;-66
2023/04/12 00:30:40;;;;;;;;;6.00;1.00;;;;;10.29;93.13;99863.25;5140532;27;45278;-65
2023/04/12 00:33:06;;;;;;;;;3.25;3.25;;;;;10.24;93.30;99847.63;5140922;27;45279;-65
2023/04/12 00:35:31;;;;;;;;;4.67;2.67;;;;;10.25;93.66;99830.06;5140326;27;46270;-65
2023/04/12 00:37:57;;;;;;;;;1.50;1.50;;;;;10.16;93.83;99802.31;5140322;27;45261;-65
2023/04/12 00:40:22;;;;;;;;;4.00;2.00;;;;;10.20;93.79;99796.03;5139958;27;45505;-65
2023/04/12 00:42:47;;;;;;;;;2.50;1.00;;;;;10.09;92.74;99772.78;5140448;27;45419;-65
2023/04/12 00:45:13;;;;;;;;;3.25;1.25;;;;;10.32;92.81;99814.94;5140070;27;46460;-65
2023/04/12 00:47:41;;;;;;;;;1.00;1.00;;;;;10.25;93.90;99782.72;5140250;27;45182;-65
2023/04/12 00:50:08;;;;;;;;;4.50;3.00;;;;;10.33;93.94;99795.59;5140354;27;45357;-65
2023/04/12 00:52:34;;;;;;;;;2.50;2.50;;;;;10.12;93.52;99740.22;5140187;27;45333;-65
2023/04/12 00:55:03;;;;;;;;;3.50;2.00;;;;;10.38;93.32;99785.78;5138810;27;46196;-65
2023/04/12 00:57:38;;;;;;;;;2.00;2.00;;;;;10.38;93.28;99778.75;5140025;27;45337;-65
2023/04/12 01:00:11;;;;;;;;;4.00;2.00;;;;;10.38;95.85;99777.88;5140094;27;45397;-65
2023/04/12 01:02:38;;;;;;;;;2.25;1.75;;;;;10.33;94.26;99754.34;5140094;27;45340;-65
2023/04/12 01:05:05;;;;;;;;;3.75;2.00;;;;;10.03;94.71;99711.63;5139882;27;47280;-65
2023/04/12 01:07:54;;;;;;;;;4.50;2.00;;;;;10.32;93.96;99754.41;5139781;27;45331;-65
2023/04/12 01:10:31;;;;;;;;;2.00;2.00;;;;;10.36;94.81;99756.03;5139598;27;45259;-65
2023/04/12 01:13:02;;;;;;;;;2.00;2.00;;;;;10.37;95.02;99755.09;5140072;27;45662;-65
2023/04/12 01:15:33;;;;;;;;;2.00;2.00;;;;;10.32;95.17;99757.03;5139676;27;46107;-65
2023/04/12 01:18:07;;;;;;;;;3.50;2.75;;;;;10.20;96.10;99746.06;5139790;27;45349;-65
2023/04/12 01:20:38;;;;;;;;;2.50;2.50;;;;;10.28;97.88;99743.13;5139721;27;45315;-65
2023/04/12 01:23:41;;;;;;;;;2.25;2.25;;;;;10.32;95.96;99752.63;5139653;27;45498;-65
2023/04/12 01:26:09;;;;;;;;;4.00;1.00;;;;;10.30;96.29;99738.69;5139306;27;45581;-65
2023/04/12 01:28:40;;;;;;;;;2.00;1.00;;;;;10.23;98.53;99735.41;5139147;27;45325;-65
2023/04/12 01:31:07;;;;;;;;;1.25;1.25;;;;;10.27;97.47;99742.28;5139613;27;45379;-65
2023/04/12 01:33:35;;;;;;;;;3.00;1.75;;;;;10.30;99.27;99746.56;5139801;27;45378;-65
2023/04/12 01:36:04;;;;;;;;;3.75;2.00;;;;;10.35;97.44;99734.13;5139242;27;46437;-65
2023/04/12 01:38:31;;;;;;;;;4.25;2.75;;;;;10.27;98.04;99713.34;5139457;27;45353;-65
2023/04/12 01:40:57;;;;;;;;;3.25;1.75;;;;;10.24;98.12;99702.09;5139231;27;45584;-65
2023/04/12 01:43:22;;;;;;;;;2.00;2.00;;;;;10.30;97.02;99696.59;5139774;27;45328;-66
2023/04/12 01:45:47;;;;;;;;;5.00;3.25;;;;;10.19;98.06;99685.59;5139093;27;46709;-65
2023/04/12 01:48:13;;;;;;;;;2.00;2.00;;;;;10.29;97.07;99697.50;5139235;27;45245;-65
2023/04/12 01:50:38;;;;;;;;;3.75;3.75;;;;;10.39;97.81;99714.66;5139467;27;45425;-66
2023/04/12 01:53:18;;;;;;;;;6.00;3.50;;;;;10.26;99.41;99698.47;5139291;27;45273;-65
2023/04/12 01:55:47;;;;;;;;;5.75;3.75;;;;;10.36;97.87;99706.06;5138982;27;45456;-65
2023/04/12 01:58:16;;;;;;;;;4.25;3.00;;;;;10.42;97.44;99706.66;5139061;27;45372;-65
2023/04/12 02:00:43;;;;;;;;;4.50;3.50;;;;;10.37;99.39;99691.97;5139279;27;45264;-65
2023/04/12 02:03:09;;;;;;;;;4.00;4.00;;;;;10.34;98.53;99684.19;5139146;27;45468;-65
2023/04/12 02:05:35;;;;;;;;;8.25;3.75;;;;;10.38;100.00;99691.94;5139031;27;46038;-65
2023/04/12 02:08:02;;;;;;;;;4.75;4.00;;;;;10.40;100.00;99679.56;5141982;27;45522;-65
2023/04/12 02:10:29;;;;;;;;;3.00;3.00;;;;;10.48;99.55;99694.19;5142814;27;45316;-65
2023/04/12 02:12:57;;;;;;;;;5.50;4.75;;;;;10.47;98.52;99676.66;5142994;27;45314;-65
2023/04/12 02:15:23;;;;;;;;;2.00;2.00;;;;;10.49;100.00;99673.06;5142470;27;45430;-65
2023/04/12 02:17:52;;;;;;;;;4.75;4.50;;;;;10.52;100.00;99674.72;5142617;27;45290;-65
2023/04/12 02:20:19;;;;;;;;;3.00;3.00;;;;;10.55;100.00;99667.56;5142716;27;45323;-65
2023/04/12 02:22:45;;;;;;;;;3.00;3.00;;;;;10.55;99.66;99664.91;5142642;27;45260;-65
2023/04/12 02:25:10;;;;;;;;;1.50;1.50;;;;;10.45;99.67;99650.41;5142429;27;45996;-65
2023/04/12 02:27:36;;;;;;;;;2.00;2.00;;;;;10.60;99.02;99662.09;5140045;27;45506;-65
2023/04/12 02:30:01;;;;;;;;;2.50;2.50;;;;;10.61;98.98;99661.19;5126635;27;45230;-65
2023/04/12 02:32:26;;;;;;;;;2.50;2.50;;;;;10.58;99.98;99661.31;5128398;27;45232;-65
2023/04/12 02:34:52;;;;;;;;;3.25;2.00;;;;;10.66;98.88;99667.13;5121451;27;45856;-65
2023/04/12 02:37:20;;;;;;;;;5.00;2.75;;;;;10.67;99.34;99668.81;5121594;27;45360;-65
2023/04/12 02:39:46;;;;;;;;;3.50;3.00;;;;;10.69;99.98;99668.75;5121365;27;45304;-65
2023/04/12 02:42:12;;;;;;;;;2.50;2.50;;;;;10.71;99.42;99667.78;5121423;27;45246;-65
2023/04/12 02:44:37;;;;;;;;;3.00;3.00;;;;;10.73;98.00;99654.56;5121375;27;45919;-65
2023/04/12 02:47:03;;;;;;;;;3.00;3.00;;;;;10.60;98.01;99623.50;5121195;27;45354;-65
2023/04/12 02:49:28;;;;;;;;;5.00;3.00;;;;;10.69;97.48;99634.53;5121525;27;45441;-65
2023/04/12 02:51:53;;;;;;;;;2.50;2.50;;;;;10.67;98.30;99639.88;5121614;27;45358;-65
2023/04/12 02:54:19;;;;;;;;;2.25;1.00;;;;;10.75;97.40;99647.47;5121313;27;46090;-65
2023/04/12 02:56:45;;;;;;;;;2.75;2.75;;;;;10.54;97.30;99614.97;5120937;27;45622;-65
2023/04/12 02:59:10;;;;;;;;;2.00;2.00;;;;;10.67;98.65;99631.97;5121234;27;45593;-65
2023/04/12 03:01:37;;;;;;;;;4.00;2.00;;;;;10.69;98.55;99618.75;5121554;27;45771;-65
2023/04/12 03:04:03;;;;;;;;;4.50;3.00;;;;;10.79;97.70;99644.63;5120902;27;47177;-65
2023/04/12 03:06:29;;;;;;;;;3.00;3.00;;;;;10.77;97.96;99641.19;5121290;27;45445;-65
2023/04/12 03:08:54;;;;;;;;;2.25;2.00;;;;;10.69;97.31;99637.16;5120974;27;45326;-65
2023/04/12 03:11:19;;;;;;;;;4.50;1.75;;;;;10.73;97.57;99651.94;5121178;27;46018;-65
2023/04/12 03:13:45;;;;;;;;;2.50;0.25;;;;;10.74;97.56;99651.88;5120927;27;45443;-65
2023/04/12 03:16:22;;;;;;;;;2.50;0.25;;;;;10.70;95.98;99645.00;5120778;27;45359;-65
2023/04/12 03:18:49;;;;;;;;;0.25;0.25;;;;;10.48;96.08;99600.28;5119998;27;45309;-65
2023/04/12 03:21:15;;;;;;;;;0.00;0.00;;;;;10.72;94.51;99650.22;5121201;27;45353;-65
2023/04/12 03:23:41;;;;;;;;;2.50;0.00;;;;;10.43;93.46;99610.16;5120669;27;46407;-65
2023/04/12 03:26:06;;;;;;;;;0.50;0.00;;;;;10.66;92.96;99667.13;5120763;27;45374;-65
2023/04/12 03:28:32;;;;;;;;;0.25;0.00;;;;;10.66;92.84;99664.50;5120507;27;45572;-65
2023/04/12 03:30:57;;;;;;;;;0.00;0.00;;;;;10.68;91.48;99660.03;5120962;27;45643;-65
2023/04/12 03:33:23;;;;;;;;;0.00;0.00;;;;;10.67;91.60;99655.66;5120738;27;46320;-65
2023/04/12 03:35:48;;;;;;;;;0.00;0.00;;;;;10.66;91.75;99648.72;5120554;27;45259;-66
2023/04/12 03:38:14;;;;;;;;;1.75;0.00;;;;;10.61;91.22;99638.34;5120759;27;45299;-65
2023/04/12 03:40:39;;;;;;;;;2.00;0.00;;;;;10.65;90.98;99657.50;5120657;27;45465;-66
2023/04/12 03:43:04;;;;;;;;;0.00;0.00;;;;;10.62;90.84;99653.22;5120273;27;46997;-65
2023/04/12 03:45:30;;;;;;;;;2.50;0.00;;;;;10.66;90.88;99645.19;5120660;27;45408;-65
2023/04/12 03:47:55;;;;;;;;;0.75;0.75;;;;;10.67;90.42;99652.19;5120556;27;45665;-66
2023/04/12 03:50:21;;;;;;;;;0.00;0.00;;;;;10.65;90.49;99652.25;5120525;27;45528;-65
2023/04/12 03:52:46;;;;;;;;;3.00;0.00;;;;;10.63;90.51;99648.84;5119443;27;45366;-66
2023/04/12 03:55:12;;;;;;;;;7.67;6.67;;;;;10.60;89.36;99643.66;5120247;27;45451;-66
2023/04/12 03:57:38;;;;;;;;;1.25;0.50;;;;;10.53;90.74;99627.28;5120248;27;45337;-65
2023/04/12 04:00:04;;;;;;;;;4.25;2.25;;;;;10.52;89.83;99622.09;5120421;27;45456;-66
2023/04/12 04:02:30;;;;;;;;;4.50;1.00;;;;;10.61;89.22;99632.22;5120084;27;46566;-66
2023/04/12 04:04:56;;;;;;;;;2.25;0.50;;;;;10.58;89.60;99625.31;5119805;27;45454;-66
2023/04/12 04:07:21;;;;;;;;;0.50;0.50;;;;;10.52;89.06;99614.19;5120168;27;45437;-66
2023/04/12 04:09:48;;;;;;;;;2.00;1.00;;;;;10.55;88.65;99620.19;5120443;27;45481;-67
2023/04/12 04:12:14;;;;;;;;;3.75;0.00;;;;;10.51;88.08;99613.31;5119838;27;45608;-66
2023/04/12 04:14:39;;;;;;;;;2.75;0.00;;;;;10.52;88.57;99614.19;5120024;27;45426;-66
2023/04/12 04:17:05;;;;;;;;;2.00;0.00;;;;;10.43;88.14;99610.16;5120228;27;45518;-66
2023/04/12 04:19:30;;;;;;;;;0.25;0.00;;;;;10.38;88.31;99609.47;5120239;27;45893;-65
2023/04/12 04:21:56;;;;;;;;;2.75;0.00;;;;;10.43;87.83;99615.44;5119962;27;47322;-66
2023/04/12 04:24:23;;;;;;;;;0.00;0.00;;;;;10.41;87.27;99623.38;5119752;27;45425;-65
2023/04/12 04:26:53;;;;;;;;;0.00;0.00;;;;;10.36;87.49;99620.06;5119759;27;45435;-66
2023/04/12 04:29:18;;;;;;;;;0.00;0.00;;;;;10.41;86.98;99618.13;5119982;27;45452;-66
2023/04/12 04:31:44;;;;;;;;;2.75;0.00;;;;;10.33;87.75;99603.53;5119477;27;45804;-66
2023/04/12 04:34:10;;;;;;;;;3.50;0.75;;;;;10.40;87.22;99611.13;5119759;27;45363;-65
2023/04/12 04:36:36;;;;;;;;;2.00;0.25;;;;;10.41;87.02;99586.53;5119776;27;45451;-66
2023/04/12 04:39:05;;;;;;;;;3.75;0.00;;;;;10.41;87.58;99564.63;5119218;27;45510;-66
2023/04/12 04:41:33;;;;;;;;;1.75;1.75;;;;;10.32;87.35;99567.59;5119229;27;45602;-65
2023/04/12 04:43:59;;;;;;;;;0.00;0.00;;;;;10.41;86.92;99593.56;5119280;27;45234;-65
2023/04/12 04:46:25;;;;;;;;;0.25;0.00;;;;;10.34;86.59;99589.47;5119810;27;45288;-65
2023/04/12 04:48:54;;;;;;;;;1.00;1.00;;;;;10.36;86.91;99585.00;5119513;27;45525;-65
2023/04/12 04:51:19;;;;;;;;;0.00;0.00;;;;;10.35;86.80;99580.66;5118895;27;46567;-66
2023/04/12 04:53:45;;;;;;;;;0.25;0.00;;;;;10.31;86.91;99579.91;5119419;27;45337;-63
2023/04/12 04:56:10;;;;;;;;;0.00;0.00;;;;;10.31;87.00;99590.44;5119335;27;45510;-65
2023/04/12 04:58:36;;;;;;;;;2.75;0.25;;;;;10.23;86.10;99582.00;5119335;27;45362;-65
2023/04/12 05:01:02;;;;;;;;;2.00;0.25;;;;;10.32;86.47;99607.06;5119214;27;46400;-66
2023/04/12 05:03:28;;;;;;;;;0.50;0.00;;;;;10.25;85.90;99586.28;5119082;27;45270;-65
2023/04/12 05:05:57;;;;;;;;;3.25;0.00;;;;;10.23;86.69;99576.72;5119096;27;45340;-65
2023/04/12 05:08:23;;;;;;;;;0.00;0.00;;;;;10.23;86.39;99598.63;5119236;27;45374;-65
2023/04/12 05:10:51;;;;;;;;;1.50;0.00;;;;;10.15;86.93;99589.31;5118667;27;46502;-65
2023/04/12 05:13:17;;;;;;;;;3.00;0.00;;;;;10.13;86.58;99596.44;5119028;27;45312;-65
2023/04/12 05:15:42;;;;;;;;;0.75;0.50;;;;;10.06;86.25;99595.81;5118762;27;45451;-65
2023/04/12 05:18:07;;;;;;;;;4.00;0.00;;;;;10.04;86.77;99600.28;5119293;27;45466;-65
2023/04/12 05:20:33;;;;;;;;;3.25;0.25;;;;;10.08;87.01;99618.50;5118854;27;45528;-65
2023/04/12 05:22:58;;;;;;;;;0.00;0.00;;;;;10.07;86.96;99624.66;5118599;27;45316;-65
2023/04/12 05:25:24;;;;;;;;;1.00;1.00;;;;;9.94;86.80;99602.41;5119210;27;45389;-65
2023/04/12 05:27:49;;;;;;;;;0.00;0.00;;;;;9.99;86.49;99620.63;5118718;27;45379;-65
2023/04/12 05:30:14;;;;;;;;;1.75;1.00;;;;;9.88;87.09;99613.16;5118457;27;45229;-65
2023/04/12 05:32:40;;;;;;;;;2.00;0.00;;;;;9.92;86.69;99618.22;5118788;27;45228;-65
2023/04/12 05:35:05;;;;;;;;;1.00;0.50;;;;;10.01;86.73;99621.44;5118790;27;45428;-65
2023/04/12 05:37:31;;;;;;;;;3.25;1.00;;;;;10.05;86.60;99623.00;5118930;27;45537;-65
2023/04/12 05:39:56;;;;;;;;;3.50;2.00;;;;;10.05;86.53;99607.22;5118276;27;45415;-65
2023/04/12 05:42:21;;;;;;;;;1.25;1.25;;;;;10.10;86.17;99606.13;5117258;27;45390;-65
2023/04/12 05:44:48;;;;;;;;;2.00;1.00;;;;;10.10;85.37;99600.88;5118763;27;45225;-65
2023/04/12 05:47:13;;;;;;;;;4.00;2.00;;;;;10.16;84.36;99610.28;5118717;27;45550;-65
2023/04/12 05:49:39;;;;;;;;;0.00;0.00;;;;;10.07;85.09;99595.72;5118179;27;46634;-64
2023/04/12 05:52:05;;;;;;;;;3.00;0.75;;;;;10.16;84.46;99607.66;5117720;27;45323;-65
2023/04/12 05:54:30;;;;;;;;;0.25;0.00;;;;;10.17;84.38;99600.66;5118741;27;45277;-65
2023/04/12 05:56:56;;;;;;;;;7.33;6.67;;;;;10.21;83.69;99596.97;5118702;27;45402;-65
2023/04/12 05:59:21;;;;;;;;;3.00;3.00;;;;;10.22;84.13;99596.06;5118040;27;46599;-65
2023/04/12 06:01:47;;;;;;;;;2.25;1.00;;;;;10.18;83.63;99571.66;5118472;27;45319;-65
2023/04/12 06:04:13;;;;;;;;;3.00;1.00;;;;;10.37;82.77;99590.22;5118396;27;45951;-65
2023/04/12 06:06:38;;;;;;;;;3.25;2.50;;;;;10.44;82.93;99588.16;5118628;27;45410;-65
2023/04/12 06:09:04;;;;;;;;;2.25;1.25;;;;;10.54;81.87;99589.53;5117580;27;45461;-65
2023/04/12 06:11:33;;;;;;;;;1.75;1.00;;;;;10.58;82.38;99587.63;5118102;27;45235;-65
2023/04/12 06:13:59;;;;;;;;;4.00;3.00;;;;;10.54;81.76;99581.63;5118198;27;45350;-65
2023/04/12 06:16:25;;;;;;;;;2.00;1.00;;;;;10.52;82.26;99590.50;5118313;27;45461;-65
2023/04/12 06:18:50;;;;;;;;;0.25;0.25;;;;;10.56;81.85;99594.72;5118287;27;45300;-65
2023/04/12 06:21:17;;;;;;;;;1.75;1.50;;;;;10.54;82.17;99596.56;5118201;27;45382;-65
2023/04/12 06:23:42;;;;;;;;;3.00;2.00;;;;;10.62;81.74;99612.91;5118162;27;45162;-65
2023/04/12 06:26:08;;;;;;;;;0.00;0.00;;;;;10.60;82.12;99610.31;5100130;27;45486;-65
2023/04/12 06:28:33;;;;;;;;;1.00;0.00;;;;;10.60;81.31;99615.59;5117630;27;46620;-65
2023/04/12 06:30:59;;;;;;;;;1.75;0.00;;;;;10.61;80.97;99616.44;5118218;27;45414;-65
2023/04/12 06:33:25;;;;;;;;;1.00;1.00;;;;;10.60;81.08;99604.19;5118139;27;45334;-65
2023/04/12 06:35:50;;;;;;;;;2.00;1.00;;;;;10.66;81.09;99619.75;5118449;27;46044;-65
2023/04/12 06:38:17;;;;;;;;;2.00;1.00;;;;;10.63;80.67;99609.34;5117960;27;45717;-65
2023/04/12 06:40:42;;;;;;;;;1.00;1.00;;;;;10.52;80.87;99582.63;5117526;27;45363;-65
2023/04/12 06:43:07;;;;;;;;;3.00;3.00;;;;;10.45;80.73;99571.47;5118015;27;45480;-65
2023/04/12 06:45:33;;;;;;;;;2.00;2.00;;;;;10.67;80.52;99608.28;5118174;27;45316;-65
2023/04/12 06:47:58;;;;;;;;;4.00;2.75;;;;;10.59;80.62;99589.34;5117767;27;46449;-65
2023/04/12 06:50:24;;;;;;;;;1.00;1.00;;;;;10.63;80.35;99598.81;5117707;27;45332;-65
2023/04/12 06:52:50;;;;;;;;;6.00;1.25;;;;;10.60;80.30;99599.78;5117758;27;45493;-65
2023/04/12 06:55:15;;;;;;;;;4.00;2.25;;;;;10.62;80.56;99603.22;5121469;27;45298;-65
2023/04/12 06:57:42;;;;;;;;;0.75;0.75;;;;;10.61;80.27;99587.47;5121207;27;45606;-65
2023/04/12 07:00:08;;;;;;;;;1.00;1.00;;;;;10.70;80.00;99597.63;5121035;27;45260;-65
2023/04/12 07:02:33;;;;;;;;;1.25;0.00;;;;;10.73;79.99;99586.09;5121397;27;45434;-65
2023/04/12 07:04:58;;;;;;;;;1.00;1.00;;;;;10.86;80.37;99583.81;5121330;27;45512;-65
2023/04/12 07:07:24;;;;;;;;;1.75;1.00;;;;;10.92;79.90;99579.16;5121160;27;46333;-65
2023/04/12 07:09:51;;;;;;;;;1.00;1.00;;;;;11.01;78.99;99570.00;5120935;27;45280;-65
2023/04/12 07:12:16;;;;;;;;;0.00;0.00;;;;;11.28;78.62;99588.13;5121129;27;45361;-65
2023/04/12 07:14:42;;;;;;;;;1.00;1.00;;;;;11.39;78.04;99583.25;5121208;27;45463;-65
2023/04/12 07:17:07;;;;;;;;;2.25;2.00;;;;;11.54;77.27;99575.56;5120769;27;47351;-65
2023/04/12 07:19:32;;;;;;;;;5.00;2.00;;;;;11.53;76.48;99566.81;5120871;27;45428;-65
2023/04/12 07:21:58;;;;;;;;;2.00;0.25;;;;;11.64;76.07;99580.34;5120608;27;45264;-66
2023/04/12 07:24:23;;;;;;;;;1.25;1.25;;;;;12.00;75.88;99576.09;5121163;27;45518;-65
2023/04/12 07:26:52;;;;;;;;;2.00;1.00;;;;;12.23;74.69;99582.03;5120601;27;47068;-65
2023/04/12 07:29:18;;;;;;;;;1.00;1.00;;;;;12.23;73.28;99571.47;5120471;27;45311;-65
2023/04/12 07:31:44;;;;;;;;;2.00;2.00;;;;;12.11;74.33;99565.00;5120577;27;45289;-65
2023/04/12 07:34:10;;;;;;;;;0.00;0.00;;;;;11.98;73.80;99555.06;5120814;27;45339;-66
2023/04/12 07:36:35;;;;;;;;;1.50;1.00;;;;;11.91;73.99;99550.09;5120547;27;46561;-65
2023/04/12 07:39:00;;;;;;;;;1.50;1.00;;;;;12.01;74.56;99581.28;5120535;27;45323;-65
2023/04/12 07:41:27;;;;;;;;;1.00;0.00;;;;;11.97;73.56;99568.34;5120349;27;45307;-65
2023/04/12 07:43:52;;;;;;;;;1.50;1.25;;;;;11.94;74.15;99556.13;5120727;27;45289;-65
2023/04/12 07:46:18;;;;;;;;;3.75;3.25;;;;;12.25;74.19;99561.72;5119729;27;45370;-65
2023/04/12 07:48:43;;;;;;;;;6.67;6.67;;;;;12.69;72.07;99569.19;5120320;27;45391;-66
2023/04/12 07:51:08;;;;;;;;;3.75;3.50;;;;;13.03;70.29;99570.97;5120492;27;45271;-66
2023/04/12 07:53:34;;;;;;;;;1.00;1.00;;;;;13.10;70.16;99568.00;5120714;27;45305;-66
2023/04/12 07:55:59;;;;;;;;;2.00;0.00;;;;;13.20;70.30;99582.44;5120425;27;47345;-65
2023/04/12 07:58:25;;;;;;;;;2.75;1.50;;;;;13.44;69.85;99564.47;5120181;27;45342;-65
2023/04/12 08:00:51;;;;;;;;;2.25;1.00;;;;;13.71;68.66;99579.78;5120259;27;45403;-65
2023/04/12 08:03:17;;;;;;;;;1.50;1.00;;;;;13.93;66.66;99580.28;5120605;27;45528;-65
2023/04/12 08:05:43;;;;;;;;;2.25;0.50;;;;;14.10;66.68;99589.94;5119651;27;45701;-65
2023/04/12 08:08:09;;;;;;;;;1.00;1.00;;;;;14.31;66.79;99604.72;5120258;27;45354;-64
2023/04/12 08:10:39;;;;;;;;;2.00;1.00;;;;;14.34;65.75;99584.19;5120213;27;45236;-65
2023/04/12 08:13:05;;;;;;;;;2.50;0.00;;;;;14.56;64.49;99585.63;5120224;27;45229;-66
2023/04/12 08:15:31;;;;;;;;;1.00;1.00;;;;;14.53;64.04;99583.16;5119793;27;46497;-65
2023/04/12 08:17:56;;;;;;;;;1.00;0.75;;;;;14.39;64.43;99587.44;5119988;27;45360;-65
2023/04/12 08:20:22;;;;;;;;;2.00;0.50;;;;;14.24;64.25;99590.97;5120050;27;45747;-66
2023/04/12 08:22:48;;;;;;;;;3.25;0.75;;;;;14.04;64.70;99590.31;5120121;27;45369;-66
2023/04/12 08:25:13;;;;;;;;;4.00;1.00;;;;;13.87;63.92;99590.38;5119673;27;47181;-66
2023/04/12 08:27:42;;;;;;;;;1.00;1.00;;;;;13.79;64.81;99584.66;5119856;27;45262;-66
2023/04/12 08:30:08;;;;;;;;;1.00;1.00;;;;;13.90;64.19;99599.00;5119667;27;45474;-66
2023/04/12 08:32:34;;;;;;;;;4.25;1.00;;;;;14.06;64.74;99590.22;5119925;27;45491;-66
2023/04/12 08:35:01;;;;;;;;;0.00;0.00;;;;;14.22;63.61;99599.00;5119583;27;46428;-65
2023/04/12 08:37:26;;;;;;;;;3.25;1.00;;;;;14.17;63.71;99601.03;5119645;27;45433;-66
2023/04/12 08:39:51;;;;;;;;;2.00;0.00;;;;;14.42;64.50;99620.81;5119822;27;45290;-65
2023/04/12 08:42:17;;;;;;;;;2.00;0.50;;;;;14.66;63.07;99620.41;5119609;27;45447;-66
2023/04/12 08:44:43;;;;;;;;;3.25;1.00;;;;;14.74;62.21;99599.59;5119204;27;45383;-66
2023/04/12 08:47:10;;;;;;;;;4.25;1.00;;;;;15.00;59.89;99629.88;5119547;27;45498;-66
2023/04/12 08:49:35;;;;;;;;;15.33;14.33;;;;;15.41;60.21;99628.31;5119419;27;45267;-66
2023/04/12 08:52:06;;;;;;;;;3.25;1.75;;;;;15.49;58.14;99620.75;5119599;27;45290;-63
2023/04/12 08:54:35;;;;;;;;;2.00;2.00;;;;;15.79;58.72;99617.19;5119481;27;46324;-66
2023/04/12 08:57:03;;;;;;;;;6.75;5.25;;;;;16.25;57.92;99630.22;5119235;27;45359;-66
2023/04/12 08:59:30;;;;;;;;;2.50;0.75;;;;;16.25;55.94;99611.63;5119303;27;45262;-66
2023/04/12 09:01:57;;;;;;;;;0.25;0.00;;;;;16.35;56.59;99606.53;5119668;27;45362;-66
2023/04/12 09:04:23;;;;;;;;;2.00;0.50;;;;;17.09;53.79;99619.44;5118919;27;47113;-65
2023/04/12 09:06:49;;;;;;;;;1.00;1.00;;;;;18.78;53.48;99609.16;5118976;27;45309;-66
2023/04/12 09:09:14;;;;;;;;;2.50;0.75;;;;;20.01;48.88;99612.13;5119293;27;45394;-66
2023/04/12 09:11:39;;;;;;;;;2.00;2.00;;;;;20.34;45.96;99616.56;5119343;27;45178;-66
2023/04/12 09:14:22;;;;;;;;;0.00;0.00;;;;;20.10;48.44;99624.78;5118921;27;45719;-66
2023/04/12 09:16:48;;;;;;;;;2.00;2.00;;;;;19.84;46.60;99621.53;5117866;27;45308;-66
2023/04/12 09:19:13;;;;;;;;;2.00;1.75;;;;;19.45;47.20;99624.50;5119076;27;45291;-66
2023/04/12 09:21:53;;;;;;;;;2.75;1.00;;;;;18.98;50.38;99633.50;5119421;27;45213;-66
2023/04/12 09:24:18;;;;;;;;;1.00;0.00;;;;;18.44;47.28;99627.66;5118727;27;46762;-66
2023/04/12 09:26:44;;;;;;;;;1.00;1.00;;;;;17.82;48.39;99607.25;5118761;27;45310;-66
2023/04/12 09:29:24;;;;;;;;;0.00;0.00;;;;;17.24;48.84;99621.03;5118835;27;45402;-65
2023/04/12 09:32:04;;;;;;;;;0.00;0.00;;;;;16.63;49.54;99616.22;5119046;27;45465;-64
2023/04/12 09:34:31;;;;;;;;;2.00;0.75;;;;;16.30;50.57;99628.09;5118522;27;46742;-64
2023/04/12 09:36:56;;;;;;;;;2.25;0.25;;;;;15.99;51.16;99623.91;5118662;27;45240;-64
2023/04/12 09:39:31;;;;;;;;;4.33;4.33;;;;;15.66;51.71;99625.03;5118739;27;45446;-65
2023/04/12 09:42:07;;;;;;;;;1.50;1.50;;;;;17.50;50.46;99629.88;5118575;27;45383;-64
2023/04/12 09:44:33;;;;;;;;;2.50;1.00;;;;;19.78;47.45;99625.53;5118347;27;46707;-65
2023/04/12 09:47:01;;;;;;;;;1.50;0.00;;;;;21.04;46.96;99618.88;5118642;27;45309;-66
2023/04/12 09:49:43;;;;;;;;;3.00;0.25;;;;;20.99;43.44;99627.28;5100070;27;45498;-65
2023/04/12 09:52:13;;;;;;;;;0.00;0.00;;;;;20.55;43.59;99629.16;5118769;27;46353;-65
2023/04/12 09:54:44;;;;;;;;;0.00;0.00;;;;;19.50;43.98;99642.84;5118364;27;46537;-65
2023/04/12 09:57:11;;;;;;;;;0.00;0.00;;;;;18.80;45.04;99628.56;5118564;27;45220;-65
2023/04/12 09:59:38;;;;;;;;;1.00;1.00;;;;;18.35;45.76;99637.19;5118500;27;45369;-65
2023/04/12 10:02:14;;;;;;;;;0.00;0.00;;;;;17.60;47.78;99639.88;5118841;27;45362;-65
2023/04/12 10:04:40;;;;;;;;;0.75;0.00;;;;;16.96;49.84;99636.22;5118062;27;46239;-65
2023/04/12 10:07:06;;;;;;;;;0.00;0.00;;;;;16.40;50.60;99643.44;5118366;27;45250;-65
2023/04/12 10:09:33;;;;;;;;;0.25;0.00;;;;;15.84;52.49;99637.19;5118122;27;46028;-65
2023/04/12 10:12:01;;;;;;;;;4.75;0.75;;;;;15.47;52.70;99628.81;5118431;27;45434;-64
2023/04/12 10:14:30;;;;;;;;;0.25;0.25;;;;;15.19;53.95;99621.69;5118027;27;46292;-65
2023/04/12 10:16:57;;;;;;;;;1.00;1.00;;;;;14.98;54.73;99621.16;5118125;27;45509;-65
2023/04/12 10:19:25;;;;;;;;;0.00;0.00;;;;;15.11;58.45;99606.22;5118298;27;45234;-65
2023/04/12 10:21:51;;;;;;;;;0.00;0.00;;;;;16.46;54.84;99597.88;5118483;27;45412;-65
2023/04/12 10:24:17;;;;;;;;;2.75;0.00;;;;;18.21;52.32;99589.38;5118084;27;46749;-65
2023/04/12 10:26:43;;;;;;;;;1.50;1.50;;;;;19.74;50.57;99588.47;5118059;27;45407;-65
2023/04/12 10:29:27;;;;;;;;;0.00;0.00;;;;;21.25;47.79;99594.78;5121281;27;45434;-65
2023/04/12 10:31:55;;;;;;;;;0.00;0.00;;;;;22.38;45.93;99583.09;5121943;27;45343;-65
2023/04/12 10:34:41;;;;;;;;;0.00;0.00;;;;;23.05;41.97;99583.19;5121503;27;46257;-65
2023/04/12 10:37:07;;;;;;;;;2.00;0.00;;;;;23.37;41.04;99582.00;5121624;27;45306;-65
2023/04/12 10:39:40;;;;;;;;;0.75;0.00;;;;;23.40;40.11;99588.94;5121570;27;45402;-65
2023/04/12 10:42:22;;;;;;;;;1.25;0.00;;;;;23.32;38.72;99591.50;5121736;27;45457;-65
2023/04/12 10:44:49;;;;;;;;;1.50;0.00;;;;;22.89;39.22;99594.53;5121148;27;47742;-65
2023/04/12 10:47:15;;;;;;;;;0.00;0.00;;;;;22.67;39.12;99602.84;5121019;27;45323;-65
2023/04/12 10:50:00;;;;;;;;;1.00;1.00;;;;;22.11;39.40;99586.41;5121434;27;45382;-65
2023/04/12 10:52:25;;;;;;;;;0.00;0.00;;;;;21.85;39.79;99594.94;5121538;27;45655;-65
2023/04/12 10:54:50;;;;;;;;;2.00;0.00;;;;;21.58;40.42;99587.53;5121124;27;46532;-65
2023/04/12 10:57:41;;;;;;;;;2.50;0.00;;;;;21.14;40.25;99602.88;5121286;27;45343;-65
2023/04/12 11:00:07;;;;;;;;;2.00;0.00;;;;;20.72;40.75;99590.31;5120837;27;45510;-65
2023/04/12 11:02:35;;;;;;;;;0.00;0.00;;;;;20.22;40.87;99588.19;5121513;27;45388;-65
2023/04/12 11:05:07;;;;;;;;;0.00;0.00;;;;;19.74;41.29;99585.81;5120613;27;47238;-65
2023/04/12 11:07:43;;;;;;;;;0.00;0.00;;;;;19.42;41.93;99579.38;5120727;27;45461;-65
2023/04/12 11:10:18;;;;;;;;;0.00;0.00;;;;;19.00;42.30;99560.41;5121195;27;45338;-65
2023/04/12 11:12:54;;;;;;;;;0.00;0.00;;;;;18.56;42.34;99564.59;5121263;27;45531;-66
2023/04/12 11:15:19;;;;;;;;;2.00;0.25;;;;;18.17;42.57;99567.47;5120406;27;46400;-66
2023/04/12 11:17:56;;;;;;;;;0.50;0.00;;;;;17.83;43.07;99567.19;5120618;27;45330;-65
2023/04/12 11:20:24;;;;;;;;;0.00;0.00;;;;;17.45;43.72;99570.78;5120987;27;45316;-66
2023/04/12 11:22:52;;;;;;;;;4.00;0.25;;;;;17.12;44.50;99579.31;5121121;27;45470;-64
2023/04/12 11:25:18;;;;;;;;;2.00;0.00;;;;;16.93;44.36;99559.28;5120653;27;47085;-65
2023/04/12 11:27:50;;;;;;;;;1.50;0.00;;;;;16.76;45.82;99557.78;5120807;27;45406;-66
2023/04/12 11:30:16;;;;;;;;;0.00;0.00;;;;;16.68;45.87;99560.09;5120428;27;45297;-66
2023/04/12 11:32:43;;;;;;;;;0.75;0.00;;;;;16.55;44.65;99573.34;5120780;27;45504;-66
2023/04/12 11:35:09;;;;;;;;;1.00;0.00;;;;;16.30;45.18;99556.38;5120642;27;45700;-65